Rheine, Germany

4:13 AM CEST on August 28, 2016 (GMT +0200)
Basilikastra├če | | Change Station

Elev 144 ft 52.28 °N, 7.45 °E | Updated 8 minutes ago

Mostly Cloudy
Mostly Cloudy
77.4 °F
Feels Like 79 °F
N
0.6
Wind Variable Wind from NW
Gusts 1.2 mph

Today
High -- | Low -- °F
--% Chance of Precip.
Yesterday
High -- | Low -- °F
Precip. -- in
Pressure 29.89 in
Visibility 6.2 miles
Clouds Few 4200 ft
Scattered Clouds 12000 ft
Mostly Cloudy 25000 ft
Heat Index 79 °F
Dew Point 69 °F
Humidity 74%
Rainfall 0.00 in
Snow Depth Not available.
6:35 AM 8:26 PM
Waning Crescent, 19% visible
METAR EDDG 280150Z 09003KT 040V170 9999 FEW042CB SCT120 BKN250 21/18 Q1012 NOSIG
Pressure 29.89 in
Visibility 6.2 miles
Clouds Few 4200 ft
Scattered Clouds 12000 ft
Mostly Cloudy 25000 ft
Heat Index 79 °F
Dew Point 69 °F
Humidity 74%
Rainfall 0.00 in
Snow Depth Not available.
6:35 AM 8:26 PM
Waning Crescent, 19% visible
METAR EDDG 280150Z 09003KT 040V170 9999 FEW042CB SCT120 BKN250 21/18 Q1012 NOSIG

10-Day Weather Forecast

×

Almanac

Astronomy

Aug. 28, 2016 Rise Set
Actual Time
Civil Twilight
Nautical Twilight
Astronomical Twilight
Moon
Length of Visible Light
Length of Day
Tomorrow will be .
, % of the Moon is Illuminated

Today's Extremes

Country Highs Country Lows

Community

WunderPhotos

Upload Photos

1,935,493 photos uploaded!

WunderBlog® & News

Nearby

Air Quality

  Air Quality AQ Index Pollutant
Not available.

Snow Depth

Station Depth Elevation

Earthquake Activity

City Distance Mag. Time & Date
Minimum magnitude displayed is 2.5.

Coastal Water Temperatures

Place Temperature

Stations

Nearby Weather Stations

Station Location Temp. Windchill Dew Point Humidity Wind Precip. Elev Updated Type